Time;durP1;ratioP1;P1;durP2;ratioP2;P2;SDS_P1;SDS_P2;PMS_P1;PMS_P2;Temp;Humidity;BMP_temperature;BMP_pressure;BME280_temperature;BME280_humidity;BME280_pressure;Samples;Min_cycle;Max_cycle;Signal;HPM_P1;HPM_P2
2023/02/09 00:00:17;;;;;;;16.63;7.75;;;2.80;99.20;;;;;;4093397;28;20569;-69
2023/02/09 00:02:17;;;;;;;16.50;7.55;;;2.80;99.30;;;;;;4095508;28;20036;-68
2023/02/09 00:04:18;;;;;;;18.30;7.63;;;2.80;98.30;;;;;;4095313;28;20046;-69
2023/02/09 00:06:20;;;;;;;14.98;7.10;;;2.80;99.90;;;;;;4094066;28;20031;-69
2023/02/09 00:08:21;;;;;;;;;;;2.70;98.10;;;;;;4095653;28;20496;-69
2023/02/09 00:10:22;;;;;;;15.50;7.10;;;2.80;99.90;;;;;;4094034;28;19922;-69
2023/02/09 00:14:42;;;;;;;14.13;6.95;;;2.80;99.20;;;;;;4089161;28;20102;-69
2023/02/09 00:16:43;;;;;;;14.60;7.47;;;2.80;99.90;;;;;;4093805;28;20028;-68
2023/02/09 00:18:43;;;;;;;15.27;7.60;;;2.80;99.90;;;;;;4094673;28;20038;-69
2023/02/09 00:20:44;;;;;;;14.70;7.35;;;2.80;99.90;;;;;;4092925;28;20435;-68
2023/02/09 00:22:45;;;;;;;14.85;7.32;;;2.80;99.90;;;;;;4094811;28;20398;-69
2023/02/09 00:24:45;;;;;;;15.18;6.30;;;2.80;99.60;;;;;;4094764;28;20062;-68
2023/02/09 00:26:46;;;;;;;13.23;6.70;;;2.70;99.90;;;;;;4076127;29;20066;-69
2023/02/09 00:28:47;;;;;;;12.50;6.70;;;2.80;99.90;;;;;;4093648;28;20046;-68
2023/02/09 00:30:48;;;;;;;12.32;6.53;;;2.80;99.90;;;;;;4094048;28;20042;-69
2023/02/09 00:32:48;;;;;;;14.95;6.82;;;2.80;99.90;;;;;;4095589;28;20055;-68
2023/02/09 00:34:49;;;;;;;13.25;6.47;;;2.80;99.90;;;;;;4097744;28;20032;-68
2023/02/09 00:36:50;;;;;;;14.15;6.68;;;2.70;99.90;;;;;;4096468;28;20575;-69
2023/02/09 00:38:50;;;;;;;15.10;7.47;;;2.80;99.90;;;;;;4097585;28;20047;-69
2023/02/09 00:40:51;;;;;;;13.95;7.05;;;2.60;99.80;;;;;;4096770;28;20030;-68
2023/02/09 00:42:51;;;;;;;14.50;6.78;;;2.70;99.90;;;;;;4095728;28;20035;-69
2023/02/09 00:44:52;;;;;;;12.95;6.80;;;2.70;99.90;;;;;;4097929;28;20487;-69
2023/02/09 00:46:53;;;;;;;11.93;6.55;;;2.70;99.90;;;;;;4097787;28;20056;-69
2023/02/09 00:48:53;;;;;;;12.32;6.70;;;2.70;99.90;;;;;;4097495;28;20063;-69
2023/02/09 00:50:54;;;;;;;11.15;6.47;;;2.70;99.90;;;;;;4096858;28;20085;-69
2023/02/09 00:52:54;;;;;;;11.65;6.32;;;2.70;99.90;;;;;;4097055;28;20019;-68
2023/02/09 00:54:55;;;;;;;15.63;7.40;;;2.70;99.90;;;;;;4080234;29;20044;-69
2023/02/09 00:56:57;;;;;;;12.68;6.90;;;2.70;99.90;;;;;;4095568;28;20039;-69
2023/02/09 00:58:58;;;;;;;11.80;6.40;;;2.70;99.90;;;;;;4095569;29;20031;-68
2023/02/09 01:00:58;;;;;;;15.32;7.15;;;2.70;99.90;;;;;;4096045;28;20062;-68
2023/02/09 01:02:59;;;;;;;15.13;7.40;;;2.70;99.90;;;;;;4097114;28;20019;-68
2023/02/09 01:04:59;;;;;;;12.30;7.05;;;2.70;99.90;;;;;;4095021;28;20090;-69
2023/02/09 01:07:00;;;;;;;12.45;6.70;;;2.70;99.90;;;;;;4095687;28;20023;-68
2023/02/09 01:09:00;;;;;;;12.85;7.00;;;2.70;99.90;;;;;;4096014;28;20034;-68
2023/02/09 01:11:13;;;;;;;17.65;7.60;;;2.60;99.90;;;;;;4096210;28;20456;-68
2023/02/09 01:13:13;;;;;;;12.70;6.50;;;2.60;99.90;;;;;;4095338;28;20086;-69
2023/02/09 01:15:14;;;;;;;15.90;7.28;;;2.60;99.90;;;;;;4096968;28;20035;-69
2023/02/09 01:17:14;;;;;;;13.55;7.40;;;2.50;99.90;;;;;;4093379;28;20051;-69
2023/02/09 01:19:15;;;;;;;13.55;6.68;;;2.50;99.90;;;;;;4096290;28;20542;-68
2023/02/09 01:21:19;;;;;;;14.10;7.38;;;2.50;99.90;;;;;;4095191;28;20043;-68
2023/02/09 01:23:20;;;;;;;16.83;7.43;;;2.50;99.90;;;;;;4096072;28;20043;-69
2023/02/09 01:25:20;;;;;;;13.75;7.25;;;2.50;99.90;;;;;;4093971;28;20059;-67
2023/02/09 01:27:21;;;;;;;15.70;7.65;;;2.40;99.90;;;;;;4095282;28;20038;-66
2023/02/09 01:29:22;;;;;;;12.90;6.97;;;2.50;99.90;;;;;;4096651;28;20050;-68
2023/02/09 01:31:28;;;;;;;12.55;7.03;;;2.50;99.90;;;;;;4095118;28;20090;-66
2023/02/09 01:33:29;;;;;;;14.07;7.28;;;2.50;99.90;;;;;;4095482;28;20109;-66
2023/02/09 01:35:30;;;;;;;13.50;7.13;;;2.50;99.90;;;;;;4094941;28;20058;-66
2023/02/09 01:37:33;;;;;;;13.65;7.20;;;2.50;99.90;;;;;;4094921;28;20027;-67
2023/02/09 01:39:33;;;;;;;15.50;7.70;;;2.50;99.90;;;;;;4095889;28;20031;-67
2023/02/09 01:41:34;;;;;;;13.98;7.35;;;2.50;99.90;;;;;;4094509;28;20033;-66
2023/02/09 01:43:54;;;;;;;13.52;7.35;;;2.50;99.90;;;;;;4095304;28;20067;-67
2023/02/09 01:45:55;;;;;;;15.20;7.38;;;2.40;99.90;;;;;;4094570;28;20037;-66
2023/02/09 01:48:00;;;;;;;17.23;7.63;;;2.40;99.90;;;;;;4095205;28;20114;-66
2023/02/09 01:50:01;;;;;;;14.07;6.72;;;2.50;99.90;;;;;;4095516;28;20031;-66
2023/02/09 01:52:05;;;;;;;13.85;7.07;;;2.40;99.90;;;;;;4094433;28;20050;-66
2023/02/09 01:54:11;;;;;;;14.48;6.50;;;2.40;99.90;;;;;;4094724;28;20054;-66
2023/02/09 01:56:19;;;;;;;12.63;7.35;;;2.40;99.90;;;;;;4092948;28;20039;-66
2023/02/09 01:58:21;;;;;;;14.95;6.82;;;2.50;99.90;;;;;;4095591;28;20032;-66
2023/02/09 02:00:23;;;;;;;15.15;7.38;;;2.50;99.90;;;;;;4093825;28;20035;-67
2023/02/09 02:02:24;;;;;;;12.70;7.00;;;2.50;99.90;;;;;;4095940;28;20039;-66
2023/02/09 02:04:25;;;;;;;14.43;7.60;;;2.50;99.90;;;;;;4095353;28;20557;-66
2023/02/09 02:06:25;;;;;;;14.98;7.63;;;2.50;99.90;;;;;;4093798;28;20043;-66
2023/02/09 02:08:50;;;;;;;15.98;7.65;;;2.50;99.90;;;;;;4078526;29;20048;-66
2023/02/09 02:10:52;;;;;;;12.70;6.90;;;2.50;99.90;;;;;;4092354;28;20043;-66
2023/02/09 02:12:53;;;;;;;15.02;7.93;;;2.50;99.90;;;;;;4095526;29;20356;-66
2023/02/09 02:14:54;;;;;;;16.03;7.87;;;2.50;99.90;;;;;;4093482;28;20028;-66
2023/02/09 02:17:10;;;;;;;16.17;8.50;;;2.40;99.90;;;;;;4096807;28;20069;-66
2023/02/09 02:19:24;;;;;;;15.85;7.53;;;2.50;99.90;;;;;;4092614;29;20168;-66
2023/02/09 02:21:42;;;;;;;13.27;6.85;;;2.40;99.90;;;;;;4094361;29;20031;-66
2023/02/09 02:24:21;;;;;;;15.05;7.32;;;2.40;99.90;;;;;;4094796;28;20057;-66
2023/02/09 02:26:43;;;;;;;13.63;6.70;;;2.40;99.90;;;;;;4086147;28;20035;-66
2023/02/09 02:29:07;;;;;;;15.20;7.82;;;2.40;99.90;;;;;;4093872;28;20055;-67
2023/02/09 02:31:26;;;;;;;16.85;8.02;;;2.40;99.90;;;;;;4092542;28;20031;-67
2023/02/09 02:33:41;;;;;;;14.40;7.25;;;2.40;99.90;;;;;;4090135;28;20038;-67
2023/02/09 02:35:52;;;;;;;14.38;7.40;;;2.30;99.90;;;;;;4092519;28;20034;-67
2023/02/09 02:38:02;;;;;;;15.93;8.40;;;2.30;99.90;;;;;;4093053;28;20028;-67
2023/02/09 02:40:35;;;;;;;17.33;7.93;;;2.30;99.90;;;;;;4093842;28;20495;-67
2023/02/09 02:42:50;;;;;;;17.30;8.05;;;2.30;99.90;;;;;;4093765;28;20042;-67
2023/02/09 02:45:07;;;;;;;15.10;7.05;;;2.20;99.90;;;;;;4092875;28;20028;-67
2023/02/09 02:47:14;;;;;;;16.42;7.88;;;2.20;99.90;;;;;;4092186;28;20092;-67
2023/02/09 02:49:39;;;;;;;15.38;8.07;;;2.20;99.90;;;;;;4095095;28;20035;-67
2023/02/09 02:51:43;;;;;;;13.90;7.05;;;2.20;99.90;;;;;;4092599;28;20450;-67
2023/02/09 02:53:49;;;;;;;15.48;6.68;;;2.20;99.90;;;;;;4094654;28;20046;-67
2023/02/09 02:55:53;;;;;;;14.30;7.55;;;2.20;99.90;;;;;;4091578;28;20070;-67
2023/02/09 02:57:59;;;;;;;15.13;7.82;;;2.20;99.90;;;;;;4094858;28;20054;-67
2023/02/09 03:00:04;;;;;;;16.02;7.57;;;2.10;99.90;;;;;;4091653;28;20039;-65
2023/02/09 03:02:09;;;;;;;15.77;7.97;;;2.20;99.90;;;;;;4092338;28;20067;-67
2023/02/09 03:04:12;;;;;;;13.98;6.75;;;2.10;99.90;;;;;;4094009;28;20454;-66
2023/02/09 03:06:13;;;;;;;15.00;7.60;;;2.20;99.90;;;;;;4094241;28;20132;-67
2023/02/09 03:08:14;;;;;;;16.15;8.10;;;2.10;99.90;;;;;;4095740;28;20391;-66
2023/02/09 03:10:36;;;;;;;14.60;7.30;;;2.10;99.90;;;;;;4094074;28;20055;-67
2023/02/09 03:12:54;;;;;;;15.52;7.93;;;2.10;99.90;;;;;;4092058;28;20537;-66
2023/02/09 03:15:20;;;;;;;14.43;7.78;;;2.00;99.90;;;;;;4090499;28;20027;-67
2023/02/09 03:17:57;;;;;;;16.08;7.95;;;2.00;99.90;;;;;;4094850;28;20028;-66
2023/02/09 03:20:11;;;;;;;14.80;7.68;;;1.90;99.90;;;;;;4091374;28;20071;-67
2023/02/09 03:22:27;;;;;;;14.60;7.18;;;1.90;99.90;;;;;;4094765;28;20039;-67
2023/02/09 03:25:04;;;;;;;17.13;8.20;;;1.90;99.90;;;;;;4094838;28;20035;-67
2023/02/09 03:27:30;;;;;;;17.95;8.25;;;1.90;99.90;;;;;;4061610;28;20089;-67
2023/02/09 03:29:33;;;;;;;18.20;8.40;;;1.90;99.90;;;;;;4090465;28;20024;-68
2023/02/09 03:31:35;;;;;;;18.42;8.82;;;1.90;99.90;;;;;;4094077;28;20515;-66
2023/02/09 03:33:37;;;;;;;14.85;7.65;;;1.80;99.90;;;;;;4094402;28;20039;-67
2023/02/09 03:35:40;;;;;;;;;;;1.80;99.90;;;;;;4094457;28;20553;-67
2023/02/09 03:37:40;;;;;;;18.45;8.35;;;1.70;99.90;;;;;;4093374;28;19993;-66
2023/02/09 03:39:41;;;;;;;14.43;7.85;;;1.70;99.90;;;;;;4095058;28;20074;-66
2023/02/09 03:41:42;;;;;;;15.32;7.93;;;1.70;99.90;;;;;;4093558;28;20038;-66
2023/02/09 03:46:01;;;;;;;18.15;8.50;;;1.70;99.90;;;;;;4092501;28;20384;-66
2023/02/09 03:48:04;;;;;;;15.75;8.00;;;1.50;99.90;;;;;;4094448;28;20054;-66
2023/02/09 03:50:06;;;;;;;19.02;9.13;;;1.60;99.90;;;;;;4094124;28;20046;-67
2023/02/09 03:52:09;;;;;;;16.00;8.85;;;1.50;99.90;;;;;;4094661;28;20090;-67
2023/02/09 03:54:10;;;;;;;17.63;8.63;;;1.50;99.90;;;;;;4094510;28;20035;-66
2023/02/09 03:56:11;;;;;;;15.93;7.78;;;1.50;99.90;;;;;;4092199;28;20086;-66
2023/02/09 03:58:11;;;;;;;18.05;8.63;;;1.50;99.90;;;;;;4093756;28;20518;-66
2023/02/09 04:00:12;;;;;;;18.67;8.45;;;1.60;99.90;;;;;;4094364;28;20062;-68
2023/02/09 04:02:13;;;;;;;18.75;8.00;;;1.60;99.90;;;;;;4094982;28;20050;-66
2023/02/09 04:04:14;;;;;;;23.58;8.30;;;1.60;99.90;;;;;;4094620;28;20031;-67
2023/02/09 04:06:14;;;;;;;15.38;8.85;;;1.60;99.90;;;;;;4094597;28;20031;-66
2023/02/09 04:08:15;;;;;;;17.50;8.40;;;1.50;99.90;;;;;;4096273;28;20043;-67
2023/02/09 04:10:15;;;;;;;18.48;8.77;;;1.50;99.90;;;;;;4096916;28;20082;-67
2023/02/09 04:12:16;;;;;;;17.60;8.95;;;1.40;99.90;;;;;;4095881;28;20098;-67
2023/02/09 04:14:17;;;;;;;18.48;8.77;;;1.50;99.90;;;;;;4097456;28;20508;-67
2023/02/09 04:16:18;;;;;;;16.92;8.55;;;1.50;99.90;;;;;;4097417;28;20130;-67
2023/02/09 04:18:19;;;;;;;16.63;8.82;;;1.40;99.90;;;;;;4097540;28;20479;-67
2023/02/09 04:20:19;;;;;;;21.30;8.88;;;1.40;99.90;;;;;;4096813;28;20035;-67
2023/02/09 04:22:20;;;;;;;17.13;8.00;;;1.40;99.90;;;;;;4097072;29;20035;-67
2023/02/09 04:24:20;;;;;;;18.73;9.07;;;1.30;99.90;;;;;;4095552;28;20094;-67
2023/02/09 04:26:21;;;;;;;20.63;9.20;;;1.30;99.90;;;;;;4096500;28;20035;-67
2023/02/09 04:28:22;;;;;;;18.05;9.30;;;1.30;99.90;;;;;;4097236;28;20043;-67
2023/02/09 04:30:22;;;;;;;17.33;9.10;;;1.30;99.90;;;;;;4096518;28;20038;-67
2023/02/09 04:32:23;;;;;;;16.63;8.35;;;1.20;99.90;;;;;;4097137;28;20046;-67
2023/02/09 04:34:23;;;;;;;18.08;9.18;;;1.30;99.90;;;;;;4097501;28;20098;-67
2023/02/09 04:36:24;;;;;;;21.38;8.85;;;1.30;99.90;;;;;;4096340;28;20057;-67
2023/02/09 04:38:25;;;;;;;16.85;8.95;;;1.30;99.90;;;;;;4096395;28;20051;-67
2023/02/09 04:40:25;;;;;;;18.27;9.15;;;1.30;99.90;;;;;;4096901;28;20047;-67
2023/02/09 04:42:26;;;;;;;18.55;9.25;;;1.20;99.90;;;;;;4097623;28;20051;-67
2023/02/09 04:44:26;;;;;;;18.60;9.35;;;1.20;99.90;;;;;;4096521;28;20113;-67
2023/02/09 04:46:27;;;;;;;19.52;9.20;;;1.10;99.90;;;;;;4095787;28;20063;-67
2023/02/09 04:48:29;;;;;;;21.83;9.50;;;1.10;99.90;;;;;;4097201;28;20461;-67
2023/02/09 04:50:29;;;;;;;16.80;8.70;;;1.10;99.90;;;;;;4096859;28;20424;-67
2023/02/09 04:52:30;;;;;;;18.25;9.55;;;1.10;99.90;;;;;;4096663;28;20051;-67
2023/02/09 04:54:30;;;;;;;20.92;9.50;;;1.10;99.90;;;;;;4096275;28;20443;-67
2023/02/09 04:56:31;;;;;;;19.65;8.63;;;1.20;99.90;;;;;;4096141;28;20043;-67
2023/02/09 05:00:53;;;;;;;18.13;8.88;;;1.20;99.90;;;;;;4093444;28;20035;-67
2023/02/09 05:02:54;;;;;;;19.02;8.73;;;1.20;99.90;;;;;;4095327;28;20391;-67
2023/02/09 05:04:54;;;;;;;19.20;9.13;;;1.20;99.90;;;;;;4094929;28;20031;-67
2023/02/09 05:06:55;;;;;;;17.92;9.45;;;1.30;99.90;;;;;;4095824;28;20024;-67
2023/02/09 05:08:56;;;;;;;19.48;8.48;;;1.20;99.90;;;;;;4094441;28;20047;-67
2023/02/09 05:10:56;;;;;;;14.30;8.18;;;1.20;99.90;;;;;;4094585;28;20134;-67
2023/02/09 05:12:57;;;;;;;17.55;9.25;;;1.20;99.90;;;;;;4095903;28;20130;-67
2023/02/09 05:14:57;;;;;;;18.90;9.65;;;1.20;99.90;;;;;;4095644;28;20438;-67
2023/02/09 05:16:58;;;;;;;20.35;9.40;;;1.20;99.90;;;;;;4087710;28;20050;-67
2023/02/09 05:18:59;;;;;;;20.52;9.25;;;1.30;99.90;;;;;;4088240;28;20023;-67
2023/02/09 05:20:59;;;;;;;19.95;9.45;;;1.30;99.90;;;;;;4099120;28;20034;-67
2023/02/09 05:23:00;;;;;;;20.63;9.55;;;1.20;99.90;;;;;;4095606;28;20047;-67
2023/02/09 05:25:01;;;;;;;18.52;9.13;;;1.20;99.90;;;;;;4094976;28;20097;-67
2023/02/09 05:27:01;;;;;;;18.90;8.63;;;1.20;99.90;;;;;;4096714;28;20885;-67
2023/02/09 05:29:03;;;;;;;21.73;9.68;;;1.20;99.90;;;;;;4094145;28;20042;-66
2023/02/09 05:31:03;;;;;;;20.20;9.60;;;1.20;99.90;;;;;;4095249;28;20094;-67
2023/02/09 05:33:04;;;;;;;25.08;10.57;;;1.10;99.90;;;;;;4093650;28;20038;-67
2023/02/09 05:35:05;;;;;;;21.75;10.48;;;1.10;99.90;;;;;;4092362;28;20042;-69
2023/02/09 05:37:05;;;;;;;19.92;9.98;;;1.10;99.90;;;;;;4095511;28;20031;-66
2023/02/09 05:39:06;;;;;;;22.33;9.77;;;1.10;99.90;;;;;;4095939;28;20397;-68
2023/02/09 05:41:10;;;;;;;22.67;10.25;;;1.00;99.90;;;;;;4093822;28;21017;-67
2023/02/09 05:43:11;;;;;;;19.13;9.52;;;1.00;99.90;;;;;;4097721;28;20114;-65
2023/02/09 05:45:11;;;;;;;21.65;9.90;;;1.00;99.90;;;;;;4092002;28;20063;-68
2023/02/09 05:47:14;;;;;;;21.17;10.80;;;0.90;99.90;;;;;;4090973;28;20679;-67
2023/02/09 05:49:14;;;;;;;21.65;10.32;;;1.00;99.90;;;;;;4096056;28;20039;-67
2023/02/09 05:51:15;;;;;;;18.02;8.98;;;1.00;99.90;;;;;;4100975;28;20506;-66
2023/02/09 05:53:16;;;;;;;21.30;10.05;;;1.00;99.90;;;;;;4095269;28;20040;-67
2023/02/09 05:55:16;;;;;;;24.30;11.07;;;1.10;99.90;;;;;;4091287;28;20027;-67
2023/02/09 05:57:17;;;;;;;21.70;10.25;;;1.00;99.90;;;;;;4096177;28;20061;-67
2023/02/09 05:59:18;;;;;;;22.20;10.75;;;1.00;99.90;;;;;;4096520;29;20121;-68
2023/02/09 06:01:18;;;;;;;20.45;9.55;;;1.10;99.90;;;;;;4096207;28;20027;-67
2023/02/09 06:03:19;;;;;;;19.63;10.55;;;1.00;99.90;;;;;;4096436;28;20031;-67
2023/02/09 06:05:20;;;;;;;20.80;10.38;;;1.00;99.90;;;;;;4092860;28;20027;-67
2023/02/09 06:07:21;;;;;;;21.53;10.53;;;1.10;99.90;;;;;;4096373;28;20031;-67
2023/02/09 06:09:22;;;;;;;21.98;9.55;;;1.10;99.90;;;;;;4094853;28;20154;-67
2023/02/09 06:11:22;;;;;;;21.88;10.82;;;1.10;99.90;;;;;;4092864;28;20043;-67
2023/02/09 06:13:23;;;;;;;19.48;9.80;;;1.00;99.90;;;;;;4090631;28;20028;-66
2023/02/09 06:15:23;;;;;;;22.60;11.48;;;0.90;99.90;;;;;;4089048;28;20036;-67
2023/02/09 06:17:24;;;;;;;18.92;9.82;;;1.00;99.90;;;;;;4088404;28;20106;-67
2023/02/09 06:19:25;;;;;;;21.85;10.05;;;0.90;99.90;;;;;;4090481;28;20458;-67
2023/02/09 06:21:25;;;;;;;24.58;11.60;;;1.00;99.90;;;;;;4087402;28;20407;-67
2023/02/09 06:23:26;;;;;;;24.02;10.30;;;0.90;99.90;;;;;;4083968;28;20113;-66
2023/02/09 06:25:26;;;;;;;20.83;10.43;;;1.00;99.90;;;;;;4088308;28;20039;-66
2023/02/09 06:27:27;;;;;;;24.15;10.55;;;1.00;99.90;;;;;;4090910;28;20038;-66
2023/02/09 06:29:28;;;;;;;19.80;9.80;;;1.10;99.90;;;;;;4089901;28;20039;-67
2023/02/09 06:31:28;;;;;;;22.58;10.88;;;1.10;99.90;;;;;;4086627;28;20047;-67
2023/02/09 06:33:29;;;;;;;23.38;10.90;;;1.10;99.90;;;;;;4089725;28;20381;-67
2023/02/09 06:35:30;;;;;;;21.17;10.75;;;1.10;99.90;;;;;;4088554;28;20079;-67
2023/02/09 06:37:30;;;;;;;24.60;11.73;;;1.00;99.90;;;;;;4088318;28;20032;-67
2023/02/09 06:39:31;;;;;;;20.88;10.70;;;1.10;99.90;;;;;;4088488;28;20043;-67
2023/02/09 06:41:31;;;;;;;19.90;9.90;;;1.10;99.90;;;;;;4089800;28;20039;-67
2023/02/09 06:43:32;;;;;;;24.63;10.70;;;1.10;99.90;;;;;;4089746;28;20039;-67
2023/02/09 06:45:33;;;;;;;21.75;10.48;;;1.10;99.90;;;;;;4088620;28;20300;-65
2023/02/09 06:47:33;;;;;;;24.15;10.20;;;1.10;99.90;;;;;;4071039;29;20035;-66
2023/02/09 06:49:34;;;;;;;25.27;10.50;;;1.10;99.90;;;;;;4089527;28;20051;-66
2023/02/09 06:51:34;;;;;;;24.25;10.27;;;1.00;99.90;;;;;;4088455;28;20229;-67
2023/02/09 06:53:35;;;;;;;22.63;10.32;;;1.00;99.90;;;;;;4089598;29;20511;-68
2023/02/09 06:55:36;;;;;;;21.45;11.45;;;1.00;99.90;;;;;;4086484;28;20503;-67
2023/02/09 06:57:37;;;;;;;23.52;10.75;;;1.00;99.90;;;;;;4089287;28;20050;-67
2023/02/09 06:59:37;;;;;;;25.20;11.00;;;1.00;99.90;;;;;;4090617;28;20395;-67
2023/02/09 07:01:38;;;;;;;19.38;10.52;;;1.10;99.90;;;;;;4085047;28;20106;-68
2023/02/09 07:03:39;;;;;;;23.00;11.35;;;1.10;99.90;;;;;;4090227;28;20343;-67
2023/02/09 07:05:39;;;;;;;22.67;11.18;;;1.00;99.90;;;;;;4087799;28;20808;-68
2023/02/09 07:07:40;;;;;;;22.92;10.85;;;1.10;99.90;;;;;;4086613;28;20042;-68
2023/02/09 07:09:40;;;;;;;21.38;10.70;;;1.10;99.90;;;;;;4087979;28;20696;-67
2023/02/09 07:11:42;;;;;;;29.38;11.98;;;1.10;99.90;;;;;;4087171;28;20114;-68
2023/02/09 07:13:43;;;;;;;24.83;11.73;;;1.10;99.90;;;;;;4088694;28;20107;-67
2023/02/09 07:15:43;;;;;;;22.70;11.05;;;1.00;99.90;;;;;;4086656;28;20066;-67
2023/02/09 07:17:44;;;;;;;24.10;10.80;;;1.00;99.90;;;;;;4087903;28;20554;-67
2023/02/09 07:19:45;;;;;;;25.02;11.00;;;1.00;99.90;;;;;;4088720;28;20436;-67
2023/02/09 07:21:47;;;;;;;25.92;12.25;;;1.00;99.90;;;;;;4087483;28;20043;-67
2023/02/09 07:23:48;;;;;;;29.47;12.77;;;1.00;99.90;;;;;;4085875;28;20345;-67
2023/02/09 07:25:48;;;;;;;31.50;14.45;;;1.00;99.90;;;;;;4088593;28;20308;-67
2023/02/09 07:27:49;;;;;;;41.35;18.30;;;1.00;99.90;;;;;;4072229;29;20569;-67
2023/02/09 07:29:49;;;;;;;49.58;20.75;;;1.00;99.90;;;;;;4088020;28;20034;-67
2023/02/09 07:31:50;;;;;;;52.78;20.67;;;1.10;99.90;;;;;;4087475;28;20118;-69
2023/02/09 07:33:52;;;;;;;52.75;22.23;;;1.00;99.90;;;;;;4084964;28;20562;-68
2023/02/09 07:35:53;;;;;;;47.40;18.83;;;1.00;99.90;;;;;;4088791;28;20031;-68
2023/02/09 07:37:53;;;;;;;39.95;17.40;;;1.10;99.90;;;;;;4084375;28;20086;-68
2023/02/09 07:39:54;;;;;;;40.35;17.00;;;1.10;99.90;;;;;;4087895;28;20027;-68
2023/02/09 07:41:55;;;;;;;39.40;17.55;;;1.10;99.90;;;;;;4088698;28;20031;-68
2023/02/09 07:43:55;;;;;;;42.40;17.95;;;1.10;99.90;;;;;;4090208;28;20545;-68
2023/02/09 07:46:05;;;;;;;43.53;17.27;;;1.10;99.90;;;;;;4089466;28;20036;-68
2023/02/09 07:48:06;;;;;;;37.28;16.55;;;1.10;99.90;;;;;;4088231;28;20530;-67
2023/02/09 07:50:07;;;;;;;39.33;16.55;;;1.20;99.90;;;;;;4086688;28;20043;-67
2023/02/09 07:52:07;;;;;;;29.88;14.57;;;1.20;99.90;;;;;;4089381;28;20123;-67
2023/02/09 07:54:12;;;;;;;30.00;13.98;;;1.20;99.90;;;;;;4089574;28;20047;-67
2023/02/09 07:56:12;;;;;;;27.50;13.10;;;1.30;99.90;;;;;;4088840;28;20031;-68
2023/02/09 07:58:16;;;;;;;28.40;13.00;;;1.20;99.90;;;;;;4086101;28;20615;-68
2023/02/09 08:00:18;;;;;;;29.27;13.07;;;1.30;99.90;;;;;;4085896;28;20059;-69
2023/02/09 08:02:32;;;;;;;25.27;12.88;;;1.40;99.90;;;;;;4089790;28;20483;-68
2023/02/09 08:04:32;;;;;;;26.58;13.07;;;1.50;99.90;;;;;;4090825;29;20071;-68
2023/02/09 08:06:39;;;;;;;22.95;11.52;;;1.60;99.90;;;;;;4091235;28;20028;-68
2023/02/09 08:08:39;;;;;;;26.90;12.45;;;1.70;99.90;;;;;;4074032;29;20991;-68
2023/02/09 08:10:40;;;;;;;23.02;11.40;;;1.80;99.90;;;;;;4089836;28;20063;-69
2023/02/09 08:12:59;;;;;;;25.20;12.35;;;1.90;99.90;;;;;;4091596;28;20130;-69
2023/02/09 08:15:00;;;;;;;21.98;11.20;;;2.00;99.90;;;;;;4092840;29;20031;-69
2023/02/09 08:17:20;;;;;;;25.77;12.55;;;2.10;99.90;;;;;;4087346;28;20175;-69
2023/02/09 08:19:23;;;;;;;21.08;11.25;;;2.20;99.90;;;;;;4090393;28;20070;-69
2023/02/09 08:21:26;;;;;;;25.35;12.70;;;2.30;99.90;;;;;;4091361;28;20126;-68
2023/02/09 08:23:31;;;;;;;24.10;11.98;;;2.50;99.90;;;;;;4089785;28;20438;-68
2023/02/09 08:25:33;;;;;;;24.70;12.07;;;2.60;99.90;;;;;;4090216;28;20087;-69
2023/02/09 08:27:36;;;;;;;20.48;11.57;;;2.80;99.90;;;;;;4091290;28;22096;-69
2023/02/09 08:29:36;;;;;;;24.85;12.18;;;3.00;99.90;;;;;;4089787;28;20032;-68
2023/02/09 08:31:37;;;;;;;22.50;11.60;;;3.20;99.90;;;;;;4088294;28;20498;-68
2023/02/09 08:33:38;;;;;;;26.02;13.10;;;3.30;99.90;;;;;;4090616;28;20082;-69
2023/02/09 08:35:39;;;;;;;19.15;11.18;;;3.50;99.90;;;;;;4090156;28;20059;-68
2023/02/09 08:37:39;;;;;;;20.75;11.65;;;3.70;99.90;;;;;;4089553;28;20035;-68
2023/02/09 08:39:40;;;;;;;19.85;11.40;;;3.90;99.90;;;;;;4091052;28;20118;-69
2023/02/09 08:41:41;;;;;;;24.05;12.63;;;4.10;99.90;;;;;;4090557;28;20039;-69
2023/02/09 08:43:45;;;;;;;23.30;12.13;;;4.30;99.90;;;;;;4089319;28;20040;-69
2023/02/09 08:45:46;;;;;;;25.05;12.52;;;4.40;99.90;;;;;;4089913;28;20479;-69
2023/02/09 08:47:46;;;;;;;22.33;11.90;;;4.60;99.90;;;;;;4090987;28;20058;-69
2023/02/09 08:49:49;;;;;;;21.40;11.55;;;4.80;99.90;;;;;;4091458;28;20086;-69
2023/02/09 08:51:49;;;;;;;;;;;4.90;99.90;;;;;;4090555;28;20111;-69
2023/02/09 08:53:50;;;;;;;21.10;11.10;;;5.00;99.90;;;;;;4087164;28;20425;-69
2023/02/09 08:55:51;;;;;;;22.73;11.82;;;5.20;99.90;;;;;;4087473;28;20054;-69
2023/02/09 08:57:52;;;;;;;24.65;12.05;;;5.30;99.90;;;;;;4091846;28;20035;-69
2023/02/09 08:59:52;;;;;;;20.48;11.88;;;5.40;99.90;;;;;;4091623;28;20036;-69
2023/02/09 09:01:53;;;;;;;19.00;11.20;;;5.50;99.90;;;;;;4088835;28;20039;-69
2023/02/09 09:03:53;;;;;;;20.15;10.25;;;5.60;99.90;;;;;;4090548;28;20071;-70
2023/02/09 09:06:02;;;;;;;21.52;11.50;;;5.70;99.90;;;;;;4091204;28;20043;-70
2023/02/09 09:08:03;;;;;;;18.40;10.70;;;5.70;99.90;;;;;;4088685;28;20054;-70
2023/02/09 09:10:04;;;;;;;19.67;10.93;;;5.80;99.90;;;;;;4085918;28;20055;-69
2023/02/09 09:12:05;;;;;;;24.15;11.40;;;5.70;99.90;;;;;;4086804;28;20047;-67
2023/02/09 09:14:06;;;;;;;24.20;11.52;;;5.70;99.90;;;;;;4090570;28;20070;-69
2023/02/09 09:16:13;;;;;;;22.67;11.98;;;5.80;99.90;;;;;;4088570;28;20031;-68
2023/02/09 09:18:14;;;;;;;20.00;11.07;;;5.70;99.30;;;;;;4090591;28;20092;-70
2023/02/09 09:20:14;;;;;;;21.45;11.20;;;5.70;99.90;;;;;;4090414;28;20039;-68
2023/02/09 09:22:15;;;;;;;18.48;10.85;;;5.70;99.90;;;;;;4088880;28;20039;-69
2023/02/09 09:24:15;;;;;;;21.05;11.63;;;5.80;99.90;;;;;;4086350;28;20097;-69
2023/02/09 09:26:16;;;;;;;23.63;12.27;;;5.70;99.90;;;;;;4090254;28;20069;-69
2023/02/09 09:28:17;;;;;;;20.08;10.80;;;5.60;99.90;;;;;;4092272;28;20043;-69
2023/02/09 09:30:18;;;;;;;23.00;11.70;;;5.60;99.90;;;;;;4076111;29;20519;-70
2023/02/09 09:32:23;;;;;;;21.90;11.07;;;5.60;99.90;;;;;;4091505;28;20142;-70
2023/02/09 09:34:23;;;;;;;21.77;11.60;;;5.60;99.90;;;;;;4091293;28;20492;-70
2023/02/09 09:36:24;;;;;;;22.63;12.45;;;5.60;99.90;;;;;;4091289;28;20047;-69
2023/02/09 09:38:25;;;;;;;20.63;11.48;;;5.60;99.90;;;;;;4088446;28;20047;-70
2023/02/09 09:40:28;;;;;;;23.20;12.32;;;5.50;99.90;;;;;;4090920;28;20509;-70
2023/02/09 09:42:42;;;;;;;19.88;11.15;;;5.50;99.90;;;;;;4091775;28;20399;-70
2023/02/09 09:44:44;;;;;;;20.60;11.60;;;5.40;99.90;;;;;;4091332;28;20038;-70
2023/02/09 09:46:48;;;;;;;21.80;10.80;;;5.40;99.90;;;;;;4089909;28;20036;-69
2023/02/09 09:48:56;;;;;;;24.88;11.90;;;5.40;99.90;;;;;;4091936;28;20562;-69
2023/02/09 09:51:01;;;;;;;22.05;11.77;;;5.40;99.90;;;;;;4090722;28;20753;-69
2023/02/09 09:53:16;;;;;;;21.80;11.82;;;5.40;99.90;;;;;;4090632;28;20035;-69
2023/02/09 09:55:24;;;;;;;26.15;12.27;;;5.40;99.80;;;;;;4087333;28;20035;-69
2023/02/09 09:57:27;;;;;;;22.77;11.43;;;5.40;99.90;;;;;;4090902;28;20069;-69
2023/02/09 09:59:33;;;;;;;23.30;11.80;;;5.50;99.30;;;;;;4090833;28;20075;-70
2023/02/09 10:01:34;;;;;;;21.52;10.77;;;5.50;99.00;;;;;;4089857;28;20048;-70
2023/02/09 10:03:35;;;;;;;20.90;11.07;;;5.60;99.20;;;;;;4091257;28;20039;-69
2023/02/09 10:05:38;;;;;;;21.55;10.88;;;5.60;98.30;;;;;;4088876;28;20415;-69
2023/02/09 10:07:42;;;;;;;25.23;12.77;;;5.60;98.10;;;;;;4089355;28;20094;-69
2023/02/09 10:09:58;;;;;;;18.45;9.98;;;5.50;97.40;;;;;;4090823;28;20073;-70
2023/02/09 10:12:37;;;;;;;21.85;11.10;;;5.60;96.60;;;;;;4090228;28;20047;-70
2023/02/09 10:14:38;;;;;;;22.98;11.63;;;5.50;97.30;;;;;;4090952;28;20391;-68
2023/02/09 10:16:39;;;;;;;21.13;10.98;;;5.50;97.80;;;;;;4090330;28;20039;-69
2023/02/09 10:18:41;;;;;;;19.48;11.10;;;5.50;97.10;;;;;;4090585;28;20110;-69
2023/02/09 10:20:52;;;;;;;23.20;11.57;;;5.60;97.60;;;;;;4091280;28;20440;-69
2023/02/09 10:22:53;;;;;;;20.88;10.95;;;5.60;97.70;;;;;;4090377;28;20110;-69
2023/02/09 10:24:54;;;;;;;22.92;12.00;;;5.50;99.00;;;;;;4086251;28;20086;-69
2023/02/09 10:27:23;;;;;;;22.65;11.13;;;5.50;97.30;;;;;;4219491;27;20391;-69
2023/02/09 10:29:24;;;;;;;19.63;10.35;;;5.60;98.50;;;;;;4204873;28;20060;-69
2023/02/09 10:31:31;;;;;;;19.73;10.73;;;5.60;98.90;;;;;;4194732;28;20516;-69
2023/02/09 10:33:41;;;;;;;19.35;10.88;;;5.50;98.00;;;;;;4195357;28;20085;-69
2023/02/09 10:35:51;;;;;;;23.25;11.43;;;5.50;97.60;;;;;;4191458;28;20036;-69
2023/02/09 10:38:00;;;;;;;21.08;11.38;;;5.50;98.60;;;;;;4193635;28;20596;-69
2023/02/09 10:40:07;;;;;;;21.58;11.73;;;5.50;98.80;;;;;;4194024;28;20119;-68
2023/02/09 10:42:18;;;;;;;25.92;12.00;;;5.50;97.40;;;;;;4205048;28;20028;-68
2023/02/09 10:44:32;;;;;;;23.08;11.32;;;5.50;98.00;;;;;;4204458;28;20044;-68
2023/02/09 10:46:36;;;;;;;23.60;11.30;;;5.40;97.30;;;;;;4198961;28;20047;-69